createdAt,value
2018-02-16T00:00:05.342Z,24.50
2018-02-16T00:02:34.558Z,23.93
2018-02-16T00:05:03.022Z,24.20
2018-02-16T00:07:31.413Z,23.13
2018-02-16T00:09:59.786Z,25.57
2018-02-16T00:12:28.201Z,26.30
2018-02-16T00:14:56.651Z,22.73
2018-02-16T00:17:25.021Z,24.77
2018-02-16T00:19:54.191Z,25.53
2018-02-16T00:22:22.592Z,25.70
2018-02-16T00:24:51.744Z,26.57
2018-02-16T00:27:20.140Z,25.27
2018-02-16T00:29:48.538Z,24.00
2018-02-16T00:32:17.683Z,26.70
2018-02-16T00:34:46.053Z,25.80
2018-02-16T00:37:14.449Z,28.17
2018-02-16T00:39:42.825Z,26.80
2018-02-16T00:42:11.239Z,29.87
2018-02-16T00:44:40.393Z,29.40
2018-02-16T00:47:08.773Z,30.27
2018-02-16T00:49:37.165Z,31.73
2018-02-16T00:52:05.558Z,34.13
2018-02-16T00:54:33.929Z,34.93
2018-02-16T00:57:02.401Z,32.40
2018-02-16T00:59:30.772Z,33.63
2018-02-16T01:01:59.293Z,38.37
2018-02-16T01:04:28.427Z,33.93
2018-02-16T01:06:56.789Z,32.47
2018-02-16T01:09:25.254Z,35.50
2018-02-16T01:11:54.396Z,34.77
2018-02-16T01:14:22.881Z,39.63
2018-02-16T01:16:51.248Z,36.20
2018-02-16T01:19:19.702Z,37.60
2018-02-16T01:21:48.833Z,35.20
2018-02-16T01:24:17.232Z,35.70
2018-02-16T01:26:45.630Z,35.43
2018-02-16T01:29:14.010Z,38.80
2018-02-16T01:31:43.247Z,36.37
2018-02-16T01:34:11.610Z,37.50
2018-02-16T01:36:40.741Z,38.93
2018-02-16T01:39:09.247Z,38.60
2018-02-16T01:41:37.681Z,36.80
2018-02-16T01:44:06.082Z,35.90
2018-02-16T01:46:34.457Z,36.90
2018-02-16T01:49:02.841Z,37.80
2018-02-16T01:51:31.235Z,39.73
2018-02-16T01:53:59.670Z,38.03
2018-02-16T01:56:28.070Z,37.47
2018-02-16T01:58:56.473Z,38.80
2018-02-16T02:01:24.869Z,37.27
2018-02-16T02:03:53.236Z,38.87
2018-02-16T02:06:21.633Z,38.43
2018-02-16T02:08:50.789Z,42.90
2018-02-16T02:11:19.246Z,40.53
2018-02-16T02:13:47.643Z,42.90
2018-02-16T02:16:16.022Z,40.77
2018-02-16T02:18:44.423Z,42.33
2018-02-16T02:21:12.813Z,40.77
2018-02-16T02:23:41.225Z,42.53
2018-02-16T02:26:10.396Z,39.30
2018-02-16T02:28:38.777Z,41.90
2018-02-16T02:31:07.137Z,41.43
2018-02-16T02:33:35.532Z,43.23
2018-02-16T02:36:04.705Z,40.87
2018-02-16T02:38:33.078Z,40.40
2018-02-16T02:41:01.492Z,41.20
2018-02-16T02:43:30.658Z,41.33
2018-02-16T02:45:59.041Z,40.37
2018-02-16T02:48:27.586Z,40.20
2018-02-16T02:50:55.983Z,43.23
2018-02-16T02:53:24.408Z,38.27
2018-02-16T02:55:52.814Z,38.87
2018-02-16T02:58:21.213Z,40.80
2018-02-16T03:00:49.585Z,37.13
2018-02-16T03:03:18.014Z,39.77
2018-02-16T03:05:46.537Z,36.37
2018-02-16T03:08:14.901Z,35.93
2018-02-16T03:10:43.295Z,40.57
2018-02-16T03:13:11.841Z,35.77
2018-02-16T03:15:40.259Z,37.30
2018-02-16T03:18:08.673Z,38.27
2018-02-16T03:20:37.046Z,35.57
2018-02-16T03:23:05.557Z,35.13
2018-02-16T03:25:34.724Z,40.03
2018-02-16T03:28:03.101Z,38.03
2018-02-16T03:30:31.473Z,41.27
2018-02-16T03:32:59.912Z,38.03
2018-02-16T03:35:29.048Z,39.60
2018-02-16T03:37:57.442Z,37.20
2018-02-16T03:40:25.897Z,37.43
2018-02-16T03:42:54.301Z,38.90
2018-02-16T03:45:22.716Z,38.33
2018-02-16T03:47:51.106Z,38.33
2018-02-16T03:50:19.600Z,41.83
2018-02-16T03:52:48.013Z,37.47
2018-02-16T03:55:16.379Z,44.03
2018-02-16T03:57:44.750Z,42.87
2018-02-16T04:00:13.266Z,43.47
2018-02-16T04:02:43.152Z,41.73
2018-02-16T04:05:11.537Z,42.40
2018-02-16T04:07:39.925Z,42.07
2018-02-16T04:10:08.315Z,43.23
2018-02-16T04:12:36.716Z,43.93
2018-02-16T04:15:05.088Z,42.77
2018-02-16T04:17:33.492Z,45.20
2018-02-16T04:20:01.926Z,44.10
2018-02-16T04:22:30.293Z,40.97
2018-02-16T04:24:58.672Z,42.67
2018-02-16T04:27:27.067Z,40.20
2018-02-16T04:29:55.467Z,43.60
2018-02-16T04:32:24.640Z,46.57
2018-02-16T04:34:53.149Z,40.80
2018-02-16T04:37:22.409Z,42.00
2018-02-16T04:39:50.833Z,42.40
2018-02-16T04:42:19.994Z,41.93
2018-02-16T04:44:48.371Z,40.37
2018-02-16T04:47:16.782Z,40.67
2018-02-16T04:49:45.161Z,43.13
2018-02-16T04:52:14.312Z,40.10
2018-02-16T04:54:42.700Z,40.60
2018-02-16T04:57:11.077Z,36.90
2018-02-16T04:59:39.577Z,38.50
2018-02-16T05:02:08.030Z,35.27
2018-02-16T05:04:36.439Z,31.20
2018-02-16T05:07:04.856Z,33.87
2018-02-16T05:09:33.290Z,32.20
2018-02-16T05:12:01.750Z,29.90
2018-02-16T05:14:30.171Z,30.60
2018-02-16T05:16:58.537Z,30.97
2018-02-16T05:19:26.978Z,24.83
2018-02-16T05:21:55.396Z,26.10
2018-02-16T05:24:23.987Z,24.30
2018-02-16T05:26:53.343Z,20.83
2018-02-16T05:29:21.731Z,20.07
2018-02-16T05:31:50.172Z,21.27
2018-02-16T05:34:18.783Z,20.70
2018-02-16T05:36:47.185Z,19.53
2018-02-16T05:39:15.565Z,16.50
2018-02-16T05:41:43.993Z,15.67
2018-02-16T05:44:12.351Z,15.70
2018-02-16T05:46:40.754Z,15.43
2018-02-16T05:49:09.130Z,15.40
2018-02-16T05:51:37.491Z,15.77
2018-02-16T05:54:06.663Z,12.73
2018-02-16T05:56:35.050Z,13.30
2018-02-16T05:59:03.460Z,12.80
2018-02-16T06:01:31.825Z,11.87
2018-02-16T06:04:00.993Z,11.63
2018-02-16T06:06:29.395Z,12.27
2018-02-16T06:08:57.797Z,12.33
2018-02-16T06:11:26.221Z,11.40
2018-02-16T06:13:54.598Z,12.57
2018-02-16T06:16:23.049Z,11.23
2018-02-16T06:18:51.470Z,10.47
2018-02-16T06:21:19.830Z,10.30
2018-02-16T06:23:48.233Z,10.30
2018-02-16T06:26:16.593Z,10.83
2018-02-16T06:28:45.113Z,9.43
2018-02-16T06:31:13.505Z,10.63
2018-02-16T06:33:41.911Z,7.90
2018-02-16T06:36:10.268Z,9.50
2018-02-16T06:38:38.670Z,8.90
2018-02-16T06:41:07.090Z,9.40
2018-02-16T06:43:36.247Z,10.80
2018-02-16T06:46:04.635Z,10.20
2018-02-16T06:48:33.041Z,10.40
2018-02-16T06:51:01.405Z,11.20
2018-02-16T06:53:29.861Z,10.60
2018-02-16T06:55:58.236Z,12.30
2018-02-16T06:58:26.657Z,13.73
2018-02-16T07:00:55.804Z,13.43
2018-02-16T07:03:24.211Z,13.17
2018-02-16T07:05:52.595Z,13.30
2018-02-16T07:08:20.993Z,12.60
2018-02-16T07:10:50.170Z,13.60
2018-02-16T07:13:18.625Z,13.70
2018-02-16T07:15:47.042Z,14.97
2018-02-16T07:18:15.413Z,14.70
2018-02-16T07:20:43.824Z,14.80
2018-02-16T07:23:12.953Z,14.07
2018-02-16T07:25:41.326Z,14.53
2018-02-16T07:28:09.813Z,16.27
2018-02-16T07:30:38.197Z,15.93
2018-02-16T07:33:06.579Z,18.10
2018-02-16T07:35:34.963Z,17.97
2018-02-16T07:38:03.332Z,20.10
2018-02-16T07:40:31.761Z,19.57
2018-02-16T07:43:00.909Z,19.03
2018-02-16T07:45:29.283Z,21.13
2018-02-16T07:47:57.676Z,21.03
2018-02-16T07:50:26.063Z,19.83
2018-02-16T07:52:54.460Z,21.60
2018-02-16T07:55:22.825Z,21.07
2018-02-16T07:57:51.244Z,23.00
2018-02-16T08:00:20.388Z,21.63
2018-02-16T08:02:48.752Z,21.73
2018-02-16T08:05:17.153Z,20.67
2018-02-16T08:07:45.583Z,21.73
2018-02-16T08:10:13.960Z,22.50
2018-02-16T08:12:42.337Z,21.80
2018-02-16T08:15:10.752Z,22.17
2018-02-16T08:17:39.124Z,21.30
2018-02-16T08:20:07.528Z,20.00
2018-02-16T08:22:35.896Z,19.43
2018-02-16T08:25:04.268Z,19.37
2018-02-16T08:27:32.710Z,21.73
2018-02-16T08:30:01.090Z,18.33
2018-02-16T08:32:29.452Z,17.63
2018-02-16T08:34:58.607Z,18.30
2018-02-16T08:37:27.010Z,16.80
2018-02-16T08:39:55.393Z,16.93
2018-02-16T08:42:23.792Z,16.80
2018-02-16T08:44:52.951Z,16.40
2018-02-16T08:47:21.313Z,15.60
2018-02-16T08:49:49.730Z,13.10
2018-02-16T08:52:18.133Z,13.37
2018-02-16T08:54:46.509Z,13.80
2018-02-16T08:57:14.877Z,12.90
2018-02-16T08:59:44.068Z,11.23
2018-02-16T09:02:13.206Z,12.70
2018-02-16T09:04:41.628Z,12.20
2018-02-16T09:07:10.037Z,11.70
2018-02-16T09:09:38.393Z,11.20
2018-02-16T09:12:07.565Z,12.83
2018-02-16T09:14:36.792Z,11.30
2018-02-16T09:17:05.940Z,12.03
2018-02-16T09:19:34.338Z,12.90
2018-02-16T09:22:02.802Z,12.80
2018-02-16T09:24:31.167Z,13.70
2018-02-16T09:26:59.555Z,15.10
2018-02-16T09:29:27.945Z,12.70
2018-02-16T09:31:56.318Z,12.80
2018-02-16T09:34:24.723Z,15.50
2018-02-16T09:36:54.298Z,13.27
2018-02-16T09:39:27.341Z,14.00
2018-02-16T09:41:56.492Z,16.97
2018-02-16T09:44:24.862Z,16.70
2018-02-16T09:46:53.238Z,17.13
2018-02-16T09:49:21.815Z,15.30
2018-02-16T09:51:50.201Z,17.13
2018-02-16T09:54:18.576Z,16.90
2018-02-16T09:56:46.985Z,19.60
2018-02-16T09:59:15.426Z,19.03
2018-02-16T10:01:43.795Z,20.10
2018-02-16T10:04:12.971Z,20.90
2018-02-16T10:06:42.124Z,20.90
2018-02-16T10:09:10.501Z,21.40
2018-02-16T10:11:39.005Z,24.37
2018-02-16T10:14:07.415Z,23.20
2018-02-16T10:16:35.801Z,23.50
2018-02-16T10:19:04.218Z,23.93
2018-02-16T10:21:32.597Z,24.10
2018-02-16T10:24:00.994Z,24.37
2018-02-16T10:26:30.173Z,23.30
2018-02-16T10:28:58.552Z,22.47
2018-02-16T10:31:26.925Z,23.90
2018-02-16T10:33:55.329Z,25.90
2018-02-16T10:36:23.768Z,25.43
2018-02-16T10:38:52.252Z,26.20
2018-02-16T10:41:20.668Z,23.80
2018-02-16T10:43:49.115Z,24.77
2018-02-16T10:46:17.493Z,23.00
2018-02-16T10:48:45.925Z,21.73
2018-02-16T10:51:15.070Z,23.23
2018-02-16T10:53:43.441Z,23.50
2018-02-16T10:56:11.845Z,22.30
2018-02-16T10:58:40.262Z,22.13
2018-02-16T11:01:14.973Z,20.83
2018-02-16T11:03:43.377Z,22.23
2018-02-16T11:06:13.346Z,19.73
2018-02-16T11:08:47.197Z,21.00
2018-02-16T11:11:16.376Z,20.60
2018-02-16T11:13:44.784Z,18.97
2018-02-16T11:16:13.205Z,18.90
2018-02-16T11:18:42.211Z,19.13
2018-02-16T11:21:10.662Z,19.17
2018-02-16T11:23:39.029Z,18.87
2018-02-16T11:26:07.450Z,17.17
2018-02-16T11:28:35.913Z,18.93
2018-02-16T11:31:04.312Z,19.60
2018-02-16T11:33:32.685Z,18.10
2018-02-16T11:36:01.109Z,18.03
2018-02-16T11:38:29.478Z,17.30
2018-02-16T11:40:58.621Z,18.70
2018-02-16T11:43:27.245Z,18.03
2018-02-16T11:45:56.404Z,16.90
2018-02-16T11:48:24.781Z,17.67
2018-02-16T11:50:53.190Z,17.20
2018-02-16T11:53:21.661Z,16.93
2018-02-16T11:55:50.111Z,16.40
2018-02-16T11:58:19.059Z,15.93
2018-02-16T12:00:47.744Z,16.17
2018-02-16T12:03:16.921Z,16.07
2018-02-16T12:05:45.338Z,14.83
2018-02-16T12:08:13.760Z,15.17
2018-02-16T12:10:42.133Z,15.30
2018-02-16T12:13:10.672Z,14.20
2018-02-16T12:15:39.086Z,13.37
2018-02-16T12:18:07.448Z,14.50
2018-02-16T12:20:36.135Z,14.50
2018-02-16T12:23:04.508Z,13.83
2018-02-16T12:25:32.877Z,13.80
2018-02-16T12:28:01.277Z,13.40
2018-02-16T12:30:29.648Z,13.57
2018-02-16T12:32:58.054Z,13.27
2018-02-16T12:35:26.522Z,12.17
2018-02-16T12:37:54.894Z,14.13
2018-02-16T12:40:23.281Z,11.90
2018-02-16T12:42:51.659Z,12.70
2018-02-16T12:45:20.048Z,11.83
2018-02-16T12:47:48.525Z,12.37
2018-02-16T12:50:16.990Z,12.80
2018-02-16T12:52:45.570Z,14.00
2018-02-16T12:55:14.151Z,13.70
2018-02-16T12:57:42.512Z,14.20
2018-02-16T13:00:10.890Z,13.50
2018-02-16T13:02:39.365Z,12.03
2018-02-16T13:05:07.757Z,11.90
2018-02-16T13:07:36.460Z,13.40
2018-02-16T13:10:04.826Z,13.90
2018-02-16T13:12:33.201Z,13.97
2018-02-16T13:15:01.598Z,14.50
2018-02-16T13:17:29.981Z,14.97
2018-02-16T13:19:58.466Z,13.87
2018-02-16T13:22:26.868Z,14.90
2018-02-16T13:24:55.230Z,13.30
2018-02-16T13:27:23.632Z,14.70
2018-02-16T13:29:52.026Z,13.00
2018-02-16T13:32:21.272Z,12.37
2018-02-16T13:34:49.650Z,13.80
2018-02-16T13:37:18.085Z,13.07
2018-02-16T13:39:47.334Z,13.47
2018-02-16T13:42:15.749Z,12.30
2018-02-16T13:44:44.108Z,12.73
2018-02-16T13:47:12.573Z,11.07
2018-02-16T13:49:41.009Z,10.30
2018-02-16T13:52:09.374Z,8.93
2018-02-16T13:54:38.503Z,8.70
2018-02-16T13:57:06.928Z,8.40
2018-02-16T13:59:35.308Z,8.73
2018-02-16T14:02:03.710Z,8.70
2018-02-16T14:04:32.893Z,10.43
2018-02-16T14:07:02.057Z,10.33
2018-02-16T14:09:30.443Z,13.57
2018-02-16T14:11:58.909Z,10.07
2018-02-16T14:14:27.362Z,10.40
2018-02-16T14:16:56.484Z,10.23
2018-02-16T14:19:24.932Z,10.37
2018-02-16T14:21:53.342Z,12.40
2018-02-16T14:24:21.701Z,12.07
2018-02-16T14:26:50.065Z,12.50
2018-02-16T14:29:18.486Z,10.90
2018-02-16T14:31:46.900Z,11.90
2018-02-16T14:34:16.037Z,12.77
2018-02-16T14:36:44.705Z,12.17
2018-02-16T14:39:13.081Z,11.13
2018-02-16T14:41:42.300Z,12.10
2018-02-16T14:44:10.732Z,10.80
2018-02-16T14:46:39.903Z,10.33
2018-02-16T14:49:08.299Z,9.90
2018-02-16T14:51:36.690Z,10.83
2018-02-16T14:54:05.148Z,10.43
2018-02-16T14:56:33.527Z,10.17
2018-02-16T14:59:01.930Z,9.57
2018-02-16T15:01:31.110Z,11.57
2018-02-16T15:03:59.498Z,10.97
2018-02-16T15:06:27.876Z,11.70
2018-02-16T15:08:57.055Z,10.33
2018-02-16T15:11:25.509Z,11.83
2018-02-16T15:13:53.867Z,11.33
2018-02-16T15:16:22.273Z,11.10
2018-02-16T15:18:50.669Z,11.53
2018-02-16T15:21:19.068Z,9.93
2018-02-16T15:23:48.215Z,11.13
2018-02-16T15:26:16.636Z,11.77
2018-02-16T15:28:45.046Z,11.30
2018-02-16T15:31:26.328Z,10.17
2018-02-16T15:33:54.724Z,9.77
2018-02-16T15:36:23.169Z,9.33
2018-02-16T15:38:52.338Z,10.23
2018-02-16T15:41:20.746Z,9.47
2018-02-16T15:43:49.949Z,9.23
2018-02-16T15:46:19.084Z,9.87
2018-02-16T15:48:47.469Z,8.93
2018-02-16T15:51:15.848Z,9.57
2018-02-16T15:53:44.237Z,9.30
2018-02-16T15:56:12.638Z,9.20
2018-02-16T15:58:41.045Z,11.23
2018-02-16T16:01:10.207Z,9.40
2018-02-16T16:03:39.419Z,10.50
2018-02-16T16:06:07.822Z,11.00
2018-02-16T16:08:36.968Z,10.97
2018-02-16T16:11:05.361Z,11.30
2018-02-16T16:13:33.717Z,10.70
2018-02-16T16:16:02.189Z,11.07
2018-02-16T16:18:30.557Z,12.07
2018-02-16T16:20:58.954Z,12.27
2018-02-16T16:23:27.345Z,12.90
2018-02-16T16:25:55.814Z,12.97
2018-02-16T16:28:24.189Z,13.50
2018-02-16T16:30:52.661Z,12.17
2018-02-16T16:33:21.063Z,13.70
2018-02-16T16:35:49.515Z,12.10
2018-02-16T16:38:17.869Z,12.80
2018-02-16T16:40:47.041Z,13.53
2018-02-16T16:43:15.442Z,12.43
2018-02-16T16:45:44.577Z,13.07
2018-02-16T16:48:12.965Z,14.20
2018-02-16T16:50:41.425Z,14.60
2018-02-16T16:53:09.828Z,14.47
2018-02-16T16:55:38.245Z,14.43
2018-02-16T16:58:06.661Z,15.90
2018-02-16T17:00:35.080Z,13.30
2018-02-16T17:03:03.449Z,15.50
2018-02-16T17:05:31.833Z,16.23
2018-02-16T17:08:00.205Z,16.00
2018-02-16T17:10:28.607Z,12.90
2018-02-16T17:12:57.027Z,14.60
2018-02-16T17:15:25.409Z,15.47
2018-02-16T17:17:54.549Z,17.80
2018-02-16T17:20:22.983Z,16.03
2018-02-16T17:22:51.341Z,16.33
2018-02-16T17:25:20.509Z,15.67
2018-02-16T17:27:48.948Z,15.73
2018-02-16T17:30:17.344Z,16.40
2018-02-16T17:32:45.812Z,15.70
2018-02-16T17:35:14.174Z,15.57
2018-02-16T17:37:42.751Z,17.03
2018-02-16T17:40:11.138Z,16.90
2018-02-16T17:42:39.514Z,16.80
2018-02-16T17:45:07.907Z,16.20
2018-02-16T17:47:36.344Z,14.50
2018-02-16T17:50:05.469Z,16.20
2018-02-16T17:55:31.418Z,14.80
2018-02-16T17:57:59.794Z,15.43
2018-02-16T18:00:28.198Z,15.30
2018-02-16T18:02:56.562Z,15.67
2018-02-16T18:05:24.941Z,14.13
2018-02-16T18:07:53.333Z,15.33
2018-02-16T18:10:21.746Z,14.83
2018-02-16T18:12:50.882Z,13.97
2018-02-16T18:15:19.270Z,15.53
2018-02-16T18:17:47.678Z,14.67
2018-02-16T18:20:16.117Z,14.90
2018-02-16T18:22:44.514Z,13.60
2018-02-16T18:25:12.892Z,13.30
2018-02-16T18:27:41.362Z,13.70
2018-02-16T18:30:09.797Z,14.17
2018-02-16T18:32:38.969Z,12.27
2018-02-16T18:35:07.342Z,13.73
2018-02-16T18:37:35.754Z,12.13
2018-02-16T18:40:04.898Z,11.90
2018-02-16T18:42:33.268Z,14.93
2018-02-16T18:45:01.766Z,13.00
2018-02-16T18:47:30.142Z,14.70
2018-02-16T18:49:58.616Z,12.57
2018-02-16T18:52:27.009Z,13.73
2018-02-16T18:54:55.424Z,12.53
2018-02-16T18:57:24.566Z,12.87
2018-02-16T18:59:52.978Z,13.30
2018-02-16T19:02:21.380Z,14.20
2018-02-16T19:04:50.523Z,14.90
2018-02-16T19:07:18.905Z,14.40
2018-02-16T19:09:47.293Z,14.10
2018-02-16T19:12:15.673Z,14.30
2018-02-16T19:14:44.073Z,14.67
2018-02-16T19:17:12.468Z,14.20
2018-02-16T19:19:41.646Z,15.70
2018-02-16T19:22:10.054Z,14.17
2018-02-16T19:24:39.212Z,16.70
2018-02-16T19:27:07.610Z,15.37
2018-02-16T19:29:36.002Z,13.73
2018-02-16T19:32:05.146Z,14.80
2018-02-16T19:34:33.581Z,14.00
2018-02-16T19:37:01.988Z,14.80
2018-02-16T19:39:30.377Z,15.73
2018-02-16T19:41:58.793Z,14.30
2018-02-16T19:44:27.206Z,14.40
2018-02-16T19:46:56.346Z,14.83
2018-02-16T19:49:24.773Z,14.10
2018-02-16T19:51:55.103Z,15.40
2018-02-16T19:54:24.337Z,16.30
2018-02-16T19:56:52.710Z,16.87
2018-02-16T19:59:21.108Z,16.70
2018-02-16T20:01:49.529Z,17.30
2018-02-16T20:04:18.768Z,16.80
2018-02-16T20:06:47.133Z,18.63
2018-02-16T20:09:15.526Z,20.30
2018-02-16T20:11:43.929Z,17.67
2018-02-16T20:14:12.340Z,18.40
2018-02-16T20:16:41.576Z,20.13
2018-02-16T20:19:09.965Z,17.93
2018-02-16T20:21:38.338Z,19.83
2018-02-16T20:24:06.725Z,19.23
2018-02-16T20:26:35.113Z,18.90
2018-02-16T20:29:03.639Z,19.93
2018-02-16T20:31:32.013Z,19.03
2018-02-16T20:34:01.258Z,17.40
2018-02-16T20:36:29.672Z,20.17
2018-02-16T20:38:58.170Z,20.03
2018-02-16T20:41:27.298Z,19.83
2018-02-16T20:43:55.705Z,20.50
2018-02-16T20:46:24.105Z,20.23
2018-02-16T20:48:52.514Z,18.97
2018-02-16T20:51:21.708Z,17.70
2018-02-16T20:53:50.875Z,18.80
2018-02-16T20:56:19.325Z,19.80
2018-02-16T20:58:47.932Z,18.80
2018-02-16T21:01:16.580Z,18.37
2018-02-16T21:03:45.015Z,19.87
2018-02-16T21:06:13.412Z,19.77
2018-02-16T21:08:41.809Z,21.07
2018-02-16T21:11:10.237Z,19.53
2018-02-16T21:13:38.695Z,18.77
2018-02-16T21:16:07.067Z,19.07
2018-02-16T21:18:35.456Z,18.87
2018-02-16T21:21:03.933Z,18.40
2018-02-16T21:23:32.301Z,20.27
2018-02-16T21:26:00.716Z,20.17
2018-02-16T21:28:29.149Z,20.13
2018-02-16T21:30:57.529Z,19.43
2018-02-16T21:33:25.962Z,18.00
2018-02-16T21:35:54.409Z,20.40
2018-02-16T21:38:22.849Z,20.83
2018-02-16T21:40:51.361Z,19.37
2018-02-16T21:43:19.748Z,19.03
2018-02-16T21:45:48.204Z,21.00
2018-02-16T21:48:16.642Z,20.80
2018-02-16T21:50:45.036Z,19.90
2018-02-16T21:53:14.228Z,19.80
2018-02-16T21:55:43.366Z,18.90
2018-02-16T21:58:11.746Z,21.40
2018-02-16T22:00:40.196Z,22.07
2018-02-16T22:03:09.385Z,19.63
2018-02-16T22:05:38.530Z,19.43
2018-02-16T22:08:07.109Z,20.93
2018-02-16T22:10:35.513Z,21.13
2018-02-16T22:13:03.873Z,21.50
2018-02-16T22:15:32.238Z,22.40
2018-02-16T22:18:00.674Z,21.00
2018-02-16T22:20:29.808Z,19.87
2018-02-16T22:22:58.209Z,20.00
2018-02-16T22:25:26.616Z,23.10
2018-02-16T22:27:55.049Z,22.20
2018-02-16T22:30:23.457Z,21.70
2018-02-16T22:32:51.825Z,19.73
2018-02-16T22:35:20.229Z,20.20
2018-02-16T22:37:48.698Z,21.03
2018-02-16T22:40:17.150Z,21.60
2018-02-16T22:42:45.560Z,21.27
2018-02-16T22:45:13.923Z,21.60
2018-02-16T22:47:42.320Z,22.70
2018-02-16T22:50:10.705Z,22.97
2018-02-16T22:52:39.143Z,26.17
2018-02-16T22:55:07.948Z,26.87
2018-02-16T22:57:36.310Z,23.50
2018-02-16T23:00:04.725Z,25.50
2018-02-16T23:02:33.086Z,23.23
2018-02-16T23:05:01.508Z,25.30
2018-02-16T23:07:30.745Z,22.93
2018-02-16T23:09:59.144Z,24.67
2018-02-16T23:12:27.549Z,25.33
2018-02-16T23:14:55.913Z,24.83
2018-02-16T23:17:24.365Z,22.60
2018-02-16T23:19:52.847Z,25.90
2018-02-16T23:22:21.217Z,22.33
2018-02-16T23:24:49.617Z,23.80
2018-02-16T23:27:18.000Z,24.70
2018-02-16T23:29:46.413Z,22.10
2018-02-16T23:32:15.596Z,20.57
2018-02-16T23:34:43.974Z,20.37
2018-02-16T23:37:12.369Z,20.27
2018-02-16T23:39:40.849Z,21.23
2018-02-16T23:42:10.030Z,21.20
2018-02-16T23:44:38.342Z,23.30
2018-02-16T23:47:06.701Z,23.77
2018-02-16T23:49:35.088Z,22.80
2018-02-16T23:52:03.491Z,22.60
2018-02-16T23:54:31.979Z,22.37
2018-02-16T23:57:00.355Z,23.40
2018-02-16T23:59:28.756Z,21.50
